Time;durP1;ratioP1;P1;durP2;ratioP2;P2;SDS_P1;SDS_P2;PMS_P1;PMS_P2;Temp;Humidity;BMP_temperature;BMP_pressure;BME280_temperature;BME280_humidity;BME280_pressure;Samples;Min_cycle;Max_cycle;Signal;HPM_P1;HPM_P2
2022/11/11 00:00:22;;;;;;;8.75;2.60;;;11.20;99.90;;;;;;5116125;28;20114;-64
2022/11/11 00:02:48;;;;;;;4.43;2.90;;;11.20;99.90;;;;;;5115856;27;20103;-63
2022/11/11 00:05:15;;;;;;;7.20;3.42;;;11.20;99.90;;;;;;5116158;28;20039;-64
2022/11/11 00:07:41;;;;;;;8.57;3.15;;;11.20;99.90;;;;;;5114965;28;20078;-64
2022/11/11 00:10:08;;;;;;;4.45;2.70;;;11.20;99.90;;;;;;5097501;28;20406;-63
2022/11/11 00:12:34;;;;;;;9.57;2.78;;;11.20;99.90;;;;;;5115422;28;20085;-64
2022/11/11 00:14:59;;;;;;;8.80;2.78;;;11.30;99.90;;;;;;5115919;28;20454;-65
2022/11/11 00:25:39;;;;;;;5.15;2.88;;;11.30;99.90;;;;;;5115298;28;20043;-63
2022/11/11 00:28:04;;;;;;;7.60;3.03;;;11.30;99.90;;;;;;5115667;28;20027;-64
2022/11/11 00:30:30;;;;;;;5.65;3.20;;;11.30;99.90;;;;;;5115609;28;20114;-63
2022/11/11 00:32:56;;;;;;;6.00;3.08;;;11.30;99.90;;;;;;5115498;28;20429;-63
2022/11/11 00:38:44;;;;;;;6.68;3.50;;;11.40;99.90;;;;;;5115425;28;20131;-64
2022/11/11 00:40:58;;;;;;;7.72;3.65;;;11.40;99.90;;;;;;5115021;28;20054;-64
2022/11/11 00:43:23;;;;;;;7.53;3.33;;;11.40;99.90;;;;;;5115352;28;20043;-64
2022/11/11 00:45:49;;;;;;;4.75;3.22;;;11.40;99.90;;;;;;5115266;28;20135;-63
2022/11/11 00:50:59;;;;;;;4.45;3.45;;;11.50;99.90;;;;;;5115184;28;20039;-63
2022/11/11 00:53:28;;;;;;;10.35;3.67;;;11.50;99.90;;;;;;5113832;28;20035;-63
2022/11/11 00:55:55;;;;;;;7.18;2.90;;;11.50;99.90;;;;;;5114763;28;20039;-64
2022/11/11 00:58:21;;;;;;;10.68;3.75;;;11.40;99.90;;;;;;5114749;28;20120;-69
2022/11/11 01:00:49;;;;;;;4.57;3.15;;;11.40;99.90;;;;;;5113812;28;20042;-63
2022/11/11 01:03:15;;;;;;;10.10;3.90;;;11.40;99.90;;;;;;5115055;28;20498;-63
2022/11/11 01:05:41;;;;;;;8.38;3.60;;;11.50;99.90;;;;;;5114866;28;20046;-63
2022/11/11 01:08:07;;;;;;;6.07;3.60;;;11.40;99.90;;;;;;5114840;28;20083;-63
2022/11/11 01:10:40;;;;;;;5.97;3.47;;;11.40;99.90;;;;;;5114755;28;20031;-63
2022/11/11 01:13:30;;;;;;;7.38;2.70;;;11.30;99.90;;;;;;5114482;28;20093;-63
2022/11/11 01:16:02;;;;;;;8.05;3.08;;;11.30;99.90;;;;;;5113101;28;20085;-63
2022/11/11 01:18:28;;;;;;;4.97;3.33;;;11.30;99.90;;;;;;5114660;28;20544;-63
2022/11/11 01:21:02;;;;;;;8.02;3.65;;;11.30;99.90;;;;;;5114423;28;20040;-63
2022/11/11 01:23:30;;;;;;;6.45;2.90;;;11.30;99.90;;;;;;5113665;28;20451;-63
2022/11/11 01:26:02;;;;;;;4.60;3.03;;;11.30;99.90;;;;;;5113001;28;20043;-66
2022/11/11 01:28:28;;;;;;;6.18;3.88;;;11.20;99.90;;;;;;5114205;28;20081;-64
2022/11/11 01:30:58;;;;;;;9.85;3.58;;;11.20;99.90;;;;;;5114446;28;20068;-63
2022/11/11 01:33:24;;;;;;;7.05;3.42;;;11.20;99.90;;;;;;5114192;28;20428;-63
2022/11/11 01:35:50;;;;;;;6.25;3.55;;;11.10;99.90;;;;;;5114242;28;20037;-63
2022/11/11 01:38:15;;;;;;;7.55;3.40;;;11.10;99.90;;;;;;5114002;28;20044;-63
2022/11/11 01:40:43;;;;;;;8.05;3.63;;;11.10;99.90;;;;;;5114024;28;20031;-64
2022/11/11 01:43:11;;;;;;;5.70;3.13;;;11.20;99.90;;;;;;5113989;28;20035;-63
2022/11/11 01:45:45;;;;;;;5.00;3.40;;;11.00;99.90;;;;;;5113815;28;20031;-63
2022/11/11 01:51:10;;;;;;;8.88;3.58;;;11.00;99.90;;;;;;5112594;28;20092;-64
2022/11/11 01:53:35;;;;;;;5.68;3.15;;;10.90;99.90;;;;;;5112584;28;20047;-64
2022/11/11 01:56:01;;;;;;;6.20;3.80;;;10.90;99.90;;;;;;5113786;28;20130;-64
2022/11/11 01:58:28;;;;;;;6.35;3.70;;;10.90;99.90;;;;;;5114085;28;20035;-63
2022/11/11 02:00:55;;;;;;;6.28;4.32;;;10.90;99.90;;;;;;5112778;28;20051;-63
2022/11/11 02:03:24;;;;;;;7.55;3.72;;;10.80;99.90;;;;;;5114036;28;20031;-63
2022/11/11 02:05:54;;;;;;;6.75;4.03;;;10.80;99.90;;;;;;5113917;28;20036;-63
2022/11/11 02:08:31;;;;;;;8.45;3.70;;;10.80;99.90;;;;;;5113630;28;20036;-63
2022/11/11 02:11:09;;;;;;;7.03;4.13;;;11.20;99.90;;;;;;5112434;28;20040;-63
2022/11/11 02:16:24;;;;;;;7.25;4.53;;;10.70;99.90;;;;;;5113747;28;20054;-63
2022/11/11 02:18:50;;;;;;;8.90;3.95;;;10.70;99.90;;;;;;5112298;28;20391;-63
2022/11/11 02:21:39;;;;;;;8.80;5.25;;;10.60;99.90;;;;;;5113844;28;20451;-64
2022/11/11 02:24:10;;;;;;;8.27;4.60;;;10.70;99.90;;;;;;5113005;28;20047;-63
2022/11/11 02:26:37;;;;;;;14.82;5.13;;;10.50;99.90;;;;;;5113829;28;20051;-63
2022/11/11 02:29:09;;;;;;;6.70;4.53;;;10.50;99.90;;;;;;5113443;28;20047;-63
2022/11/11 02:31:35;;;;;;;7.78;4.65;;;10.50;99.90;;;;;;5095494;28;20448;-64
2022/11/11 02:34:01;;;;;;;8.77;4.65;;;10.40;99.90;;;;;;5129407;28;20051;-64
2022/11/11 02:36:26;;;;;;;9.57;5.30;;;10.50;99.90;;;;;;5115959;28;20132;-64
2022/11/11 02:38:52;;;;;;;9.40;5.55;;;10.40;99.90;;;;;;5117822;28;20445;-65
2022/11/11 02:44:03;;;;;;;8.32;5.88;;;10.40;99.90;;;;;;5117658;28;20035;-64
2022/11/11 02:46:28;;;;;;;9.27;5.53;;;10.40;99.90;;;;;;5117619;28;20036;-64
2022/11/11 02:48:54;;;;;;;8.75;5.65;;;10.30;99.90;;;;;;5115889;28;20129;-63
2022/11/11 02:51:20;;;;;;;7.57;5.75;;;10.40;99.90;;;;;;5117457;28;20039;-64
2022/11/11 02:53:45;;;;;;;9.77;5.32;;;10.50;99.90;;;;;;5117175;28;20520;-63
2022/11/11 02:56:11;;;;;;;12.30;5.32;;;10.50;99.90;;;;;;5115850;28;20051;-64
2022/11/11 02:58:37;;;;;;;9.95;6.13;;;10.50;99.90;;;;;;5116005;28;20035;-63
2022/11/11 03:01:02;;;;;;;9.93;5.82;;;10.50;99.90;;;;;;5115813;28;20043;-63
2022/11/11 03:03:28;;;;;;;12.35;6.70;;;10.50;99.90;;;;;;5115956;28;20039;-63
2022/11/11 03:05:54;;;;;;;12.73;5.47;;;10.60;99.90;;;;;;5117220;28;20043;-64
2022/11/11 03:08:19;;;;;;;10.75;6.88;;;10.50;99.90;;;;;;5115940;28;20043;-63
2022/11/11 03:10:45;;;;;;;10.77;6.78;;;10.40;99.90;;;;;;5117188;28;20084;-64
2022/11/11 03:13:10;;;;;;;14.82;6.32;;;10.50;99.90;;;;;;5117063;28;20054;-63
2022/11/11 03:15:36;;;;;;;10.82;6.63;;;10.50;99.90;;;;;;5115816;28;20472;-63
2022/11/11 03:18:02;;;;;;;9.70;5.43;;;10.50;99.90;;;;;;5117025;28;20474;-63
2022/11/11 03:23:14;;;;;;;12.18;6.40;;;10.50;99.90;;;;;;5116953;28;20057;-64
2022/11/11 03:25:43;;;;;;;10.98;6.30;;;10.60;99.90;;;;;;5115691;28;20119;-64
2022/11/11 03:28:15;;;;;;;13.05;6.15;;;10.60;99.90;;;;;;5116713;28;20478;-64
2022/11/11 03:30:43;;;;;;;12.57;6.32;;;10.50;99.90;;;;;;5116476;28;20080;-63
2022/11/11 03:33:09;;;;;;;17.10;6.78;;;10.60;99.90;;;;;;5116770;28;20044;-63
2022/11/11 03:35:36;;;;;;;14.00;7.15;;;10.60;99.90;;;;;;5116772;28;20089;-63
2022/11/11 03:38:15;;;;;;;12.10;6.40;;;10.60;99.90;;;;;;5116638;28;20050;-63
2022/11/11 03:40:45;;;;;;;10.05;7.07;;;10.70;99.90;;;;;;5115322;28;20035;-63
2022/11/11 03:43:16;;;;;;;16.00;6.20;;;10.70;99.90;;;;;;5115320;28;20043;-63
2022/11/11 03:45:43;;;;;;;12.90;6.07;;;10.60;99.90;;;;;;5115903;28;20122;-64
2022/11/11 03:48:09;;;;;;;9.20;5.82;;;10.60;99.90;;;;;;5115570;28;20055;-63
2022/11/11 03:50:35;;;;;;;13.02;6.43;;;10.60;99.90;;;;;;5116413;28;20394;-63
2022/11/11 03:53:01;;;;;;;17.00;7.63;;;10.70;99.90;;;;;;5116392;28;20036;-63
2022/11/11 03:55:28;;;;;;;11.52;6.95;;;10.60;99.90;;;;;;5115964;28;20027;-63
2022/11/11 03:57:54;;;;;;;12.27;7.50;;;10.60;99.90;;;;;;5116269;28;20036;-63
2022/11/11 04:00:25;;;;;;;11.57;6.45;;;10.60;99.90;;;;;;5116213;28;20059;-64
2022/11/11 04:11:23;;;;;;;14.52;7.80;;;10.60;99.90;;;;;;5116019;28;20507;-63
2022/11/11 04:16:34;;;;;;;12.80;6.85;;;10.60;99.90;;;;;;5115488;28;20040;-63
2022/11/11 04:21:44;;;;;;;11.75;7.60;;;10.60;99.90;;;;;;5115808;28;20391;-63
2022/11/11 04:27:06;;;;;;;14.18;7.70;;;10.90;99.90;;;;;;5115689;28;20071;-63
2022/11/11 04:29:33;;;;;;;15.88;7.80;;;10.60;99.90;;;;;;5115695;28;20050;-63
2022/11/11 04:32:42;;;;;;;13.30;7.70;;;10.60;99.90;;;;;;5115611;28;20486;-63
2022/11/11 04:34:56;;;;;;;14.60;7.53;;;10.60;99.90;;;;;;5106859;27;20039;-63
2022/11/11 04:37:24;;;;;;;13.00;7.35;;;10.70;99.90;;;;;;5115426;28;20045;-63
2022/11/11 04:42:35;;;;;;;13.27;7.32;;;10.60;99.90;;;;;;5114073;28;20126;-65
2022/11/11 04:47:56;;;;;;;12.73;7.68;;;10.70;99.90;;;;;;5115035;28;20460;-63
2022/11/11 04:50:23;;;;;;;14.60;7.25;;;10.70;99.90;;;;;;5114925;28;20082;-63
2022/11/11 04:52:49;;;;;;;14.52;8.18;;;10.70;99.90;;;;;;5114881;28;20040;-65
2022/11/11 04:57:59;;;;;;;14.68;7.80;;;10.70;99.90;;;;;;5114897;28;20500;-64
2022/11/11 05:00:25;;;;;;;14.73;8.43;;;10.70;99.90;;;;;;5115069;28;20119;-63
2022/11/11 05:11:07;;;;;;;14.32;8.10;;;10.90;99.90;;;;;;5114822;28;20088;-64
2022/11/11 05:21:54;;;;;;;20.30;8.30;;;10.60;99.90;;;;;;5114643;28;20046;-63
2022/11/11 05:27:04;;;;;;;18.42;7.53;;;10.60;99.90;;;;;;5114545;28;20559;-63
2022/11/11 05:29:30;;;;;;;15.45;8.23;;;10.70;99.90;;;;;;5113316;28;20047;-63
2022/11/11 05:31:56;;;;;;;14.15;8.07;;;10.70;99.90;;;;;;5114490;28;20105;-64
2022/11/11 05:34:21;;;;;;;17.13;8.13;;;10.70;99.90;;;;;;5112888;28;20406;-64
2022/11/11 05:36:47;;;;;;;17.40;7.82;;;10.70;99.90;;;;;;5114327;28;20065;-63
2022/11/11 05:39:12;;;;;;;17.10;8.57;;;10.80;99.90;;;;;;5114445;28;20454;-63
2022/11/11 05:41:38;;;;;;;13.95;7.50;;;10.80;99.90;;;;;;5114022;28;20379;-63
2022/11/11 05:44:04;;;;;;;12.77;7.72;;;10.80;99.90;;;;;;5114339;28;20115;-66
2022/11/11 05:46:30;;;;;;;15.60;8.77;;;10.80;99.90;;;;;;5113973;28;20044;-63
2022/11/11 05:49:14;;;;;;;13.35;7.43;;;10.80;99.90;;;;;;5113681;28;20056;-64
2022/11/11 05:51:39;;;;;;;13.02;8.20;;;10.80;99.90;;;;;;5113186;28;20047;-63
2022/11/11 05:54:05;;;;;;;12.25;7.72;;;10.80;99.90;;;;;;5114145;28;20051;-64
2022/11/11 05:56:31;;;;;;;12.32;7.53;;;10.80;99.90;;;;;;5113716;28;20047;-63
2022/11/11 05:58:57;;;;;;;13.82;6.43;;;10.80;99.90;;;;;;5114138;28;20027;-64
2022/11/11 06:01:23;;;;;;;18.25;8.10;;;10.80;99.90;;;;;;5114033;28;20039;-63
2022/11/11 06:03:48;;;;;;;17.30;8.30;;;10.80;99.90;;;;;;5113716;28;20441;-64
2022/11/11 06:06:14;;;;;;;14.75;8.00;;;10.80;99.90;;;;;;5095681;28;20126;-64
2022/11/11 06:08:40;;;;;;;11.68;8.10;;;10.80;99.90;;;;;;5113636;28;20039;-66
2022/11/11 06:11:06;;;;;;;12.13;8.30;;;10.90;99.90;;;;;;5113474;28;20067;-63
2022/11/11 06:13:32;;;;;;;12.95;7.07;;;10.80;99.90;;;;;;5112346;28;20039;-62
2022/11/11 06:15:58;;;;;;;14.52;8.07;;;10.80;99.90;;;;;;5112542;28;20046;-65
2022/11/11 06:18:24;;;;;;;11.57;8.13;;;10.80;99.90;;;;;;5113810;28;20035;-64
2022/11/11 06:20:55;;;;;;;17.20;7.63;;;10.80;99.90;;;;;;5113842;28;20463;-63
2022/11/11 06:23:21;;;;;;;14.90;8.15;;;10.80;99.90;;;;;;5113823;28;20031;-64
2022/11/11 06:28:31;;;;;;;12.40;7.35;;;10.80;99.90;;;;;;5113706;28;20038;-64
2022/11/11 06:30:57;;;;;;;18.85;7.93;;;10.80;99.90;;;;;;5113704;28;20118;-64
2022/11/11 06:33:23;;;;;;;11.27;7.55;;;10.80;99.90;;;;;;5113455;28;20036;-66
2022/11/11 06:35:48;;;;;;;18.45;7.82;;;10.80;99.90;;;;;;5113648;28;20035;-62
2022/11/11 06:38:14;;;;;;;13.43;7.85;;;10.80;99.90;;;;;;5113692;28;20097;-64
2022/11/11 06:40:42;;;;;;;11.52;8.02;;;10.80;99.90;;;;;;5113609;28;20394;-64
2022/11/11 06:43:07;;;;;;;15.88;7.13;;;10.70;99.90;;;;;;5113637;28;20039;-63
2022/11/11 06:45:35;;;;;;;12.43;7.75;;;10.70;99.90;;;;;;5113650;28;20096;-63
2022/11/11 06:48:04;;;;;;;12.25;7.65;;;10.70;99.90;;;;;;5113402;28;20414;-63
2022/11/11 06:50:33;;;;;;;15.57;7.95;;;10.80;99.90;;;;;;5112330;28;20043;-63
2022/11/11 06:53:19;;;;;;;15.32;7.28;;;10.70;99.90;;;;;;5111995;28;20050;-61
2022/11/11 06:55:45;;;;;;;13.82;7.72;;;10.70;99.90;;;;;;5113132;28;20119;-64
2022/11/11 06:58:16;;;;;;;13.02;7.38;;;10.70;99.90;;;;;;5113501;28;20412;-64
2022/11/11 07:00:43;;;;;;;17.58;8.13;;;10.70;99.90;;;;;;5111976;28;20122;-63
2022/11/11 07:03:11;;;;;;;17.23;8.55;;;10.70;99.90;;;;;;5113212;28;20073;-63
2022/11/11 07:05:37;;;;;;;10.05;6.43;;;10.80;99.90;;;;;;5112990;28;20093;-63
2022/11/11 07:08:05;;;;;;;15.20;7.28;;;10.80;99.90;;;;;;5113404;28;20039;-63
2022/11/11 07:10:32;;;;;;;15.43;7.88;;;10.70;99.90;;;;;;5113401;28;20036;-63
2022/11/11 07:12:59;;;;;;;12.18;7.13;;;10.80;99.90;;;;;;5113450;28;20031;-63
2022/11/11 07:15:25;;;;;;;13.10;6.93;;;10.80;99.90;;;;;;5112966;28;20067;-63
2022/11/11 07:17:51;;;;;;;12.55;7.00;;;10.80;99.90;;;;;;5113203;28;20043;-63
2022/11/11 07:20:17;;;;;;;15.70;7.50;;;10.90;99.90;;;;;;5113266;28;20058;-64
2022/11/11 07:22:42;;;;;;;11.43;7.75;;;10.80;99.90;;;;;;5115679;28;20088;-63
2022/11/11 07:25:08;;;;;;;13.15;6.50;;;10.90;99.90;;;;;;5116930;28;20505;-63
2022/11/11 07:27:41;;;;;;;11.57;7.35;;;10.90;99.90;;;;;;5116847;28;20047;-63
2022/11/11 07:30:09;;;;;;;14.40;7.00;;;10.80;99.90;;;;;;5116554;28;20047;-63
2022/11/11 07:32:35;;;;;;;10.95;6.13;;;10.90;99.90;;;;;;5116847;28;20074;-63
2022/11/11 07:35:00;;;;;;;13.93;8.02;;;10.90;99.90;;;;;;5115492;28;20051;-64
2022/11/11 07:37:26;;;;;;;11.23;7.00;;;10.90;99.90;;;;;;5116217;28;20054;-63
2022/11/11 07:39:53;;;;;;;13.75;7.15;;;10.90;99.90;;;;;;5116666;28;20498;-63
2022/11/11 07:42:19;;;;;;;15.68;6.88;;;11.30;99.90;;;;;;5116131;28;20043;-63
2022/11/11 07:44:45;;;;;;;15.05;6.55;;;10.90;99.90;;;;;;5116415;28;20028;-64
2022/11/11 07:47:11;;;;;;;13.77;7.18;;;11.00;99.90;;;;;;5114844;28;20047;-63
2022/11/11 07:49:36;;;;;;;12.80;6.00;;;11.20;99.90;;;;;;5115833;28;20073;-64
2022/11/11 07:52:02;;;;;;;11.57;6.55;;;10.90;99.90;;;;;;5116240;28;20086;-71
2022/11/11 07:54:28;;;;;;;15.60;6.95;;;11.00;99.90;;;;;;5114640;28;20126;-66
2022/11/11 07:56:54;;;;;;;11.65;6.85;;;11.00;99.90;;;;;;5115872;28;20494;-66
2022/11/11 07:59:19;;;;;;;10.43;6.55;;;11.00;99.90;;;;;;5116086;28;20112;-65
2022/11/11 08:01:45;;;;;;;14.35;7.10;;;11.00;99.90;;;;;;5114825;28;20079;-65
2022/11/11 08:04:11;;;;;;;10.90;6.93;;;11.00;99.90;;;;;;5115984;28;20118;-62
2022/11/11 08:06:37;;;;;;;11.55;6.95;;;11.00;99.90;;;;;;5115606;28;20035;-63
2022/11/11 08:09:02;;;;;;;11.40;5.97;;;11.00;99.90;;;;;;5114482;28;20047;-64
2022/11/11 08:14:12;;;;;;;10.85;6.90;;;11.00;99.90;;;;;;5115769;28;20502;-63
2022/11/11 08:16:38;;;;;;;11.18;6.70;;;11.00;99.90;;;;;;5115381;28;20079;-64
2022/11/11 08:19:04;;;;;;;14.55;6.82;;;11.00;99.90;;;;;;5115652;28;20082;-63
2022/11/11 08:21:30;;;;;;;9.55;6.03;;;11.00;99.90;;;;;;5115497;28;20032;-63
2022/11/11 08:23:56;;;;;;;12.73;6.90;;;11.10;99.90;;;;;;5115251;28;20039;-63
2022/11/11 08:26:22;;;;;;;9.95;5.72;;;11.10;99.90;;;;;;5115409;28;20079;-63
2022/11/11 08:28:48;;;;;;;16.52;6.65;;;11.10;99.90;;;;;;5115414;28;20058;-64
2022/11/11 08:31:14;;;;;;;10.98;6.47;;;11.20;99.90;;;;;;5115111;28;20486;-65
2022/11/11 08:33:40;;;;;;;11.18;6.70;;;11.10;99.90;;;;;;5114960;28;20031;-63
2022/11/11 08:36:06;;;;;;;10.55;5.60;;;11.20;99.90;;;;;;5115036;28;20052;-63
2022/11/11 08:38:33;;;;;;;11.90;6.75;;;11.10;99.90;;;;;;5115240;28;20053;-63
2022/11/11 08:41:00;;;;;;;9.45;5.97;;;11.10;99.90;;;;;;5115341;28;20035;-65
2022/11/11 08:43:26;;;;;;;12.07;5.68;;;11.10;99.90;;;;;;5113592;28;20203;-63
2022/11/11 08:45:53;;;;;;;11.05;6.55;;;11.20;99.90;;;;;;5114844;28;20118;-63
2022/11/11 08:48:19;;;;;;;12.93;6.85;;;11.20;99.90;;;;;;5114807;28;20132;-63
2022/11/11 08:50:44;;;;;;;9.52;6.35;;;11.30;99.90;;;;;;5114781;28;20050;-64
2022/11/11 08:53:10;;;;;;;11.52;5.82;;;11.30;99.90;;;;;;5115316;28;20035;-63
2022/11/11 08:55:37;;;;;;;10.38;5.80;;;11.30;99.90;;;;;;5115075;28;20389;-63
2022/11/11 08:58:05;;;;;;;10.63;5.25;;;11.30;99.90;;;;;;5114657;28;20039;-64
2022/11/11 09:00:32;;;;;;;9.07;5.57;;;11.60;99.90;;;;;;5113560;28;20471;-63
2022/11/11 09:03:03;;;;;;;10.25;5.75;;;11.40;99.90;;;;;;5114896;27;20035;-63
2022/11/11 09:05:29;;;;;;;9.05;5.70;;;11.30;99.90;;;;;;5114574;28;20035;-64
2022/11/11 09:07:55;;;;;;;8.68;5.50;;;11.50;99.90;;;;;;5114830;28;20119;-65
2022/11/11 09:10:21;;;;;;;9.43;5.00;;;11.40;99.90;;;;;;5114512;28;20050;-63
2022/11/11 09:12:46;;;;;;;10.18;5.57;;;11.40;99.90;;;;;;5114386;28;20043;-64
2022/11/11 09:15:12;;;;;;;7.93;5.72;;;11.50;99.90;;;;;;5114427;28;20112;-63
2022/11/11 09:17:38;;;;;;;11.93;5.30;;;11.50;99.90;;;;;;5096447;28;20046;-64
2022/11/11 09:20:04;;;;;;;14.55;6.30;;;11.50;99.90;;;;;;5114278;28;20119;-64
2022/11/11 09:22:30;;;;;;;11.05;6.03;;;11.50;99.90;;;;;;5113403;28;20165;-63
2022/11/11 09:24:55;;;;;;;12.65;5.20;;;11.50;99.90;;;;;;5114640;28;20510;-65
2022/11/11 09:27:21;;;;;;;9.40;4.75;;;11.50;99.90;;;;;;5114604;28;20395;-64
2022/11/11 09:29:47;;;;;;;6.55;4.63;;;11.60;99.90;;;;;;5114323;28;20055;-64
2022/11/11 09:32:13;;;;;;;9.60;5.28;;;11.60;99.90;;;;;;5113227;28;20032;-65
2022/11/11 09:34:38;;;;;;;8.95;4.72;;;11.60;99.90;;;;;;5114355;28;20147;-64
2022/11/11 09:37:04;;;;;;;8.32;5.05;;;11.60;99.90;;;;;;5114171;28;20039;-64
2022/11/11 09:39:30;;;;;;;9.80;5.50;;;11.60;99.90;;;;;;5114128;28;20039;-64
2022/11/11 09:42:27;;;;;;;10.75;5.15;;;11.70;99.90;;;;;;5114147;28;20039;-63
2022/11/11 09:45:14;;;;;;;9.18;5.55;;;11.70;99.90;;;;;;5113369;28;20392;-63
2022/11/11 09:48:23;;;;;;;9.93;5.60;;;11.70;99.90;;;;;;5114179;28;20071;-64
2022/11/11 09:50:53;;;;;;;9.50;5.50;;;11.70;99.90;;;;;;5113704;28;20064;-63
2022/11/11 09:53:32;;;;;;;9.27;5.38;;;11.80;99.90;;;;;;5114145;28;20372;-64
2022/11/11 09:56:11;;;;;;;7.93;4.47;;;11.80;99.90;;;;;;5113762;28;20110;-64
2022/11/11 09:58:45;;;;;;;9.77;4.63;;;11.80;99.90;;;;;;5113755;28;20077;-63
2022/11/11 10:01:33;;;;;;;9.13;5.00;;;11.90;99.90;;;;;;5113952;28;20161;-63
2022/11/11 10:04:19;;;;;;;9.60;5.28;;;11.90;99.90;;;;;;5114007;28;20027;-64
2022/11/11 10:06:46;;;;;;;7.28;5.28;;;11.90;99.90;;;;;;5113298;28;20097;-63
2022/11/11 10:09:24;;;;;;;13.85;5.18;;;11.90;99.90;;;;;;5113946;28;20429;-64
2022/11/11 10:12:10;;;;;;;10.23;5.15;;;12.20;99.90;;;;;;5112355;28;20066;-64
2022/11/11 10:14:40;;;;;;;9.20;5.07;;;12.00;99.90;;;;;;5113868;28;20051;-63
2022/11/11 10:17:58;;;;;;;7.40;4.22;;;12.00;99.90;;;;;;5113785;28;20083;-67
2022/11/11 10:20:34;;;;;;;7.75;4.35;;;12.00;99.90;;;;;;5110445;28;20402;-63
2022/11/11 10:23:14;;;;;;;11.27;4.90;;;12.00;99.90;;;;;;5113489;28;20031;-63
2022/11/11 10:25:55;;;;;;;9.63;4.38;;;12.00;99.90;;;;;;5113524;28;20031;-63
2022/11/11 10:28:28;;;;;;;16.20;6.35;;;12.10;99.90;;;;;;5113429;28;20043;-64
2022/11/11 10:30:54;;;;;;;11.05;5.07;;;12.10;99.90;;;;;;5112098;28;20111;-64
2022/11/11 10:33:30;;;;;;;7.47;4.20;;;12.10;99.90;;;;;;5113577;28;20031;-64
2022/11/11 10:36:00;;;;;;;8.40;4.40;;;12.10;99.90;;;;;;5113604;28;20035;-62
2022/11/11 10:38:44;;;;;;;8.07;4.80;;;12.10;99.90;;;;;;5113344;28;20042;-62
2022/11/11 10:41:09;;;;;;;7.25;4.40;;;12.20;99.90;;;;;;5113308;28;20036;-62
2022/11/11 10:43:35;;;;;;;9.40;5.13;;;12.20;99.90;;;;;;5113562;28;20047;-62
2022/11/11 10:46:14;;;;;;;11.23;4.68;;;12.20;99.90;;;;;;5113573;28;20042;-62
2022/11/11 10:48:59;;;;;;;7.93;4.20;;;12.20;99.90;;;;;;5112011;28;20131;-62
2022/11/11 10:51:33;;;;;;;10.57;4.35;;;12.20;99.90;;;;;;5113455;28;20040;-62
2022/11/11 10:54:21;;;;;;;6.95;4.82;;;12.30;99.90;;;;;;5113551;28;20032;-69
2022/11/11 10:57:07;;;;;;;6.88;4.20;;;12.30;99.90;;;;;;5105850;28;20502;-68
2022/11/11 10:59:48;;;;;;;8.77;4.57;;;12.30;99.90;;;;;;5117478;28;20035;-62
2022/11/11 11:02:22;;;;;;;;;;;12.30;99.90;;;;;;5116380;28;20503;-63
2022/11/11 11:04:54;;;;;;;8.23;4.50;;;12.30;99.90;;;;;;5117341;28;19959;-62
2022/11/11 11:07:52;;;;;;;9.73;4.82;;;12.40;99.90;;;;;;5116965;28;20046;-63
2022/11/11 11:10:31;;;;;;;8.40;4.80;;;12.40;99.90;;;;;;5116898;28;20035;-62
2022/11/11 11:13:06;;;;;;;9.52;5.63;;;12.40;99.90;;;;;;5117182;28;20040;-62
2022/11/11 11:15:37;;;;;;;9.15;3.75;;;12.40;99.90;;;;;;5117113;28;20039;-62
2022/11/11 11:18:18;;;;;;;10.05;5.28;;;12.40;99.90;;;;;;5117066;28;20430;-62
2022/11/11 11:21:01;;;;;;;10.90;5.30;;;12.50;99.90;;;;;;5117045;28;20035;-64
2022/11/11 11:23:44;;;;;;;7.43;4.25;;;12.50;99.90;;;;;;5116978;28;20039;-65
2022/11/11 11:26:13;;;;;;;8.75;4.78;;;12.50;99.90;;;;;;5115669;28;20028;-64
2022/11/11 11:28:58;;;;;;;7.65;4.40;;;12.50;99.90;;;;;;5116856;28;20398;-64
2022/11/11 11:31:36;;;;;;;7.28;4.45;;;12.50;99.90;;;;;;5116744;28;20071;-66
2022/11/11 11:34:02;;;;;;;6.72;4.40;;;12.50;99.90;;;;;;5115201;28;20043;-65
2022/11/11 11:36:27;;;;;;;6.97;4.40;;;12.50;99.90;;;;;;5116571;28;20050;-65
2022/11/11 11:38:53;;;;;;;8.07;4.75;;;12.50;99.90;;;;;;5116721;28;20067;-65
2022/11/11 11:41:38;;;;;;;11.65;4.45;;;12.50;99.90;;;;;;5116511;28;20028;-65
2022/11/11 11:44:29;;;;;;;7.25;5.18;;;12.60;99.90;;;;;;5116554;28;20036;-65
2022/11/11 11:47:12;;;;;;;5.45;4.18;;;12.60;99.90;;;;;;5115399;28;20043;-65
2022/11/11 11:49:45;;;;;;;7.55;4.18;;;12.60;99.90;;;;;;5116197;28;20406;-65
2022/11/11 11:52:16;;;;;;;8.75;4.35;;;12.60;99.90;;;;;;5116421;28;20083;-65
2022/11/11 11:55:05;;;;;;;6.20;4.28;;;12.60;99.90;;;;;;5116068;28;20047;-65
2022/11/11 11:57:51;;;;;;;6.07;4.13;;;12.60;99.90;;;;;;5115770;28;20118;-65
2022/11/11 12:00:24;;;;;;;7.28;4.72;;;12.60;99.90;;;;;;5116123;28;20555;-66
2022/11/11 12:03:17;;;;;;;8.35;5.20;;;12.50;99.90;;;;;;5114713;28;20046;-65
2022/11/11 12:05:48;;;;;;;8.70;5.30;;;12.60;99.90;;;;;;5116179;28;20039;-64
2022/11/11 12:08:43;;;;;;;8.85;5.20;;;12.50;99.90;;;;;;5115288;28;20494;-66
2022/11/11 12:11:21;;;;;;;8.95;5.72;;;12.50;99.90;;;;;;5116054;28;20088;-66
2022/11/11 12:14:24;;;;;;;7.88;5.03;;;12.50;99.90;;;;;;5114771;28;20397;-66
2022/11/11 12:17:01;;;;;;;9.10;5.03;;;12.50;99.90;;;;;;5115835;28;20052;-66
2022/11/11 12:19:56;;;;;;;6.80;4.70;;;12.50;99.90;;;;;;5115855;28;20495;-66
2022/11/11 12:22:40;;;;;;;7.93;4.65;;;12.50;99.90;;;;;;5115795;28;20471;-65
2022/11/11 12:25:21;;;;;;;9.77;4.65;;;12.50;99.90;;;;;;5115711;28;20520;-66
2022/11/11 12:28:03;;;;;;;10.20;4.95;;;12.50;99.90;;;;;;5115693;28;20094;-67
2022/11/11 12:30:32;;;;;;;7.15;4.68;;;12.50;99.90;;;;;;5115367;28;20097;-66
2022/11/11 12:33:01;;;;;;;8.68;4.60;;;12.50;99.90;;;;;;5115324;28;20046;-65
2022/11/11 12:35:29;;;;;;;12.18;4.40;;;12.50;99.90;;;;;;5114321;28;20040;-65
2022/11/11 12:38:15;;;;;;;9.57;4.68;;;12.50;99.90;;;;;;5115408;28;20071;-64
2022/11/11 12:40:58;;;;;;;8.82;4.90;;;12.50;99.90;;;;;;5115463;28;20032;-65
2022/11/11 12:43:45;;;;;;;7.45;4.15;;;12.50;99.90;;;;;;5113725;28;20123;-66
2022/11/11 12:46:11;;;;;;;7.70;4.47;;;12.50;99.90;;;;;;5115374;28;20039;-66
2022/11/11 12:48:48;;;;;;;7.18;4.82;;;12.50;99.90;;;;;;5114834;28;20057;-65
2022/11/11 12:51:36;;;;;;;8.75;4.38;;;12.50;99.90;;;;;;5114877;28;20189;-69
2022/11/11 12:54:41;;;;;;;7.28;4.55;;;12.50;99.90;;;;;;5113975;28;20169;-66
2022/11/11 12:57:30;;;;;;;8.23;4.63;;;12.50;99.90;;;;;;5052079;28;20492;-66
2022/11/11 13:00:01;;;;;;;10.55;4.18;;;12.60;99.90;;;;;;5110120;28;20091;-66
2022/11/11 13:02:30;;;;;;;6.97;4.05;;;12.70;99.90;;;;;;5113488;28;20098;-66
2022/11/11 13:05:18;;;;;;;7.32;4.13;;;12.60;99.90;;;;;;5115015;28;20411;-66
2022/11/11 13:08:17;;;;;;;9.55;4.45;;;12.60;99.90;;;;;;5114667;28;20092;-66
2022/11/11 13:10:52;;;;;;;7.15;3.85;;;12.60;99.90;;;;;;5114897;28;20482;-67
2022/11/11 13:13:31;;;;;;;9.48;4.05;;;12.60;99.90;;;;;;5114378;28;20039;-67
2022/11/11 13:15:58;;;;;;;6.82;4.53;;;12.60;99.90;;;;;;5114480;28;20040;-68
2022/11/11 13:18:54;;;;;;;8.23;4.68;;;12.50;99.90;;;;;;5114302;28;20054;-66
2022/11/11 13:21:28;;;;;;;8.75;4.15;;;12.50;99.90;;;;;;5106013;28;20122;-67
2022/11/11 13:23:54;;;;;;;7.18;4.20;;;12.50;99.90;;;;;;5113384;28;20058;-67
2022/11/11 13:26:24;;;;;;;7.90;3.75;;;12.50;99.90;;;;;;5114283;28;20055;-68
2022/11/11 13:28:56;;;;;;;5.57;3.55;;;12.50;99.90;;;;;;5096250;28;20451;-68
2022/11/11 13:31:34;;;;;;;7.38;4.00;;;12.60;99.90;;;;;;5114453;28;20057;-67
2022/11/11 13:34:13;;;;;;;8.90;4.75;;;12.60;99.90;;;;;;5114447;28;20039;-68
2022/11/11 13:36:44;;;;;;;7.50;3.55;;;12.60;99.90;;;;;;5113987;28;20039;-67
2022/11/11 13:39:23;;;;;;;5.85;3.85;;;12.60;99.90;;;;;;5114275;28;20433;-67
2022/11/11 13:41:54;;;;;;;6.07;3.25;;;12.60;99.90;;;;;;5114306;28;20032;-66
2022/11/11 13:44:25;;;;;;;6.95;4.07;;;12.70;99.90;;;;;;5114267;28;20042;-67
2022/11/11 13:46:57;;;;;;;7.25;4.05;;;12.60;99.90;;;;;;5114328;28;20036;-67
2022/11/11 13:49:29;;;;;;;6.50;3.80;;;12.60;99.90;;;;;;5113924;28;20063;-67
2022/11/11 13:52:01;;;;;;;5.55;3.50;;;12.70;99.90;;;;;;5114118;28;20052;-66
2022/11/11 13:54:38;;;;;;;8.45;3.72;;;12.70;99.90;;;;;;5114137;28;20487;-65
2022/11/11 13:57:20;;;;;;;5.70;2.88;;;12.60;99.90;;;;;;5113692;28;20032;-67
2022/11/11 14:00:02;;;;;;;9.50;4.07;;;12.60;99.90;;;;;;5114058;28;20403;-67
2022/11/11 14:02:32;;;;;;;7.82;3.75;;;12.60;99.90;;;;;;5112688;28;20071;-67
2022/11/11 14:05:01;;;;;;;10.75;3.35;;;12.70;99.90;;;;;;5113777;28;20051;-67
2022/11/11 14:07:47;;;;;;;7.15;3.72;;;12.60;99.90;;;;;;5113580;28;20055;-67
2022/11/11 14:10:16;;;;;;;5.95;3.75;;;12.70;99.90;;;;;;5114051;28;20368;-71
2022/11/11 14:13:17;;;;;;;11.95;4.10;;;12.80;99.90;;;;;;5112320;28;20047;-67
2022/11/11 14:15:47;;;;;;;7.78;3.50;;;12.60;99.90;;;;;;5112297;28;20035;-68
2022/11/11 14:18:19;;;;;;;8.63;4.18;;;12.60;99.90;;;;;;5113551;28;20044;-69